Terminal Aerodrome Forecast
Issued by NWS Sterling, VA

Current Version | Previous Version | Text Only | Print | Product List | Glossary Off
Versions: 1 2 3 4 5 6 7 8 9 10 11 12 13 14 15 16 17 18 19 20 21 22 23 24 25 26 27 28 29 30 31

000
FTUS41 KLWX 030540 RRA
TAFIAD
TAF
KIAD 030540Z 0306/0412 02003KT P6SM FEW250
     FM031400 15005KT P6SM BKN050
     FM031600 17007KT 4SM -SNPL OVC020
     FM032100 16010KT 2SM BR OVC007
      TEMPO 0321/0324 1SM -FZRA
     FM040300 20010KT 1 1/2SM BR OVC004=

USA.gov is the U.S. government's official web portal to all federal, state and local government web resources and services.